createdAt,value
2023-04-10T00:01:15.284Z,14.55
2023-04-10T00:03:18.154Z,16.13
2023-04-10T00:05:20.218Z,16.00
2023-04-10T00:07:22.079Z,17.35
2023-04-10T00:09:23.946Z,16.55
2023-04-10T00:11:26.590Z,17.50
2023-04-10T00:13:28.578Z,17.63
2023-04-10T00:15:30.686Z,18.77
2023-04-10T00:19:34.482Z,18.75
2023-04-10T00:21:36.354Z,21.90
2023-04-10T00:23:38.236Z,22.73
2023-04-10T00:25:40.229Z,21.40
2023-04-10T00:27:42.136Z,22.25
2023-04-10T00:29:44.005Z,23.77
2023-04-10T00:31:45.980Z,24.90
2023-04-10T00:35:49.890Z,25.70
2023-04-10T00:37:52.469Z,24.20
2023-04-10T00:39:54.287Z,27.90
2023-04-10T00:41:57.691Z,30.85
2023-04-10T00:44:00.285Z,28.33
2023-04-10T00:46:02.219Z,31.48
2023-04-10T00:48:04.305Z,31.90
2023-04-10T00:52:09.184Z,28.05
2023-04-10T00:54:12.197Z,31.08
2023-04-10T00:56:14.645Z,31.48
2023-04-10T00:58:16.566Z,34.45
2023-04-10T01:00:18.735Z,32.95
2023-04-10T01:02:20.998Z,33.55
2023-04-10T01:04:26.752Z,34.28
2023-04-10T01:06:54.573Z,32.28
2023-04-10T01:09:02.443Z,34.25
2023-04-10T01:11:24.912Z,36.13
2023-04-10T01:16:05.656Z,33.58
2023-04-10T01:18:26.844Z,33.45
2023-04-10T01:20:34.890Z,34.03
2023-04-10T01:23:00.866Z,34.65
2023-04-10T01:25:19.544Z,33.60
2023-04-10T01:27:49.424Z,32.88
2023-04-10T01:29:55.618Z,33.70
2023-04-10T01:32:10.454Z,33.45
2023-04-10T01:34:20.079Z,31.83
2023-04-10T01:36:26.360Z,33.63
2023-04-10T01:38:29.462Z,32.65
2023-04-10T01:40:33.013Z,31.70
2023-04-10T01:42:51.713Z,31.42
2023-04-10T01:44:54.492Z,32.05
2023-04-10T01:46:57.880Z,31.88
2023-04-10T01:49:01.999Z,33.05
2023-04-10T01:51:05.820Z,31.05
2023-04-10T01:53:08.185Z,29.88
2023-04-10T01:55:10.343Z,29.58
2023-04-10T01:59:20.557Z,27.73
2023-04-10T02:01:29.533Z,28.05
2023-04-10T02:03:32.885Z,31.27
2023-04-10T02:05:46.530Z,27.80
2023-04-10T02:08:17.297Z,28.65
2023-04-10T02:10:23.511Z,27.73
2023-04-10T02:12:36.351Z,26.17
2023-04-10T02:14:43.036Z,27.02
2023-04-10T02:16:45.684Z,27.70
2023-04-10T02:18:48.999Z,28.52
2023-04-10T02:20:50.940Z,26.92
2023-04-10T02:22:54.103Z,28.65
2023-04-10T02:24:57.606Z,27.20
2023-04-10T02:26:59.547Z,28.45
2023-04-10T02:29:01.405Z,29.00
2023-04-10T02:31:03.293Z,27.77
2023-04-10T02:33:05.529Z,28.38
2023-04-10T02:35:08.173Z,30.58
2023-04-10T02:37:10.264Z,28.65
2023-04-10T02:41:13.876Z,29.70
2023-04-10T02:43:15.896Z,29.67
2023-04-10T02:47:19.658Z,28.65
2023-04-10T02:49:21.572Z,30.77
2023-04-10T02:51:23.440Z,28.83
2023-04-10T02:53:26.139Z,30.20
2023-04-10T02:55:28.116Z,30.92
2023-04-10T02:57:30.012Z,30.65
2023-04-10T02:59:31.897Z,31.92
2023-04-10T03:01:34.188Z,31.60
2023-04-10T03:03:36.245Z,30.38
2023-04-10T03:07:39.941Z,28.63
2023-04-10T03:09:41.809Z,28.33
2023-04-10T03:11:43.702Z,28.13
2023-04-10T03:13:45.633Z,27.45
2023-04-10T03:15:47.605Z,28.55
2023-04-10T03:19:51.848Z,25.40
2023-04-10T03:21:53.700Z,26.25
2023-04-10T03:23:55.753Z,25.23
2023-04-10T03:25:58.122Z,23.80
2023-04-10T03:28:00.068Z,29.42
2023-04-10T03:30:02.819Z,21.75
2023-04-10T03:32:05.021Z,20.90
2023-04-10T03:34:06.911Z,21.08
2023-04-10T03:36:09.266Z,22.15
2023-04-10T03:38:11.227Z,22.15
2023-04-10T03:40:13.380Z,23.30
2023-04-10T03:42:15.326Z,23.90
2023-04-10T03:44:17.910Z,27.23
2023-04-10T03:46:19.780Z,26.92
2023-04-10T03:48:21.646Z,26.35
2023-04-10T03:50:23.538Z,27.80
2023-04-10T03:52:26.140Z,29.50
2023-04-10T03:54:27.960Z,28.55
2023-04-10T03:56:29.853Z,27.27
2023-04-10T03:58:31.728Z,26.65
2023-04-10T04:00:33.693Z,29.05
2023-04-10T04:02:35.882Z,30.55
2023-04-10T04:04:38.085Z,24.70
2023-04-10T04:06:41.506Z,26.38
2023-04-10T04:08:44.988Z,26.02
2023-04-10T04:10:46.930Z,26.80
2023-04-10T04:12:48.778Z,27.60
2023-04-10T04:14:50.807Z,29.75
2023-04-10T04:16:52.818Z,30.73
2023-04-10T04:20:58.765Z,37.35
2023-04-10T04:23:00.603Z,34.97
2023-04-10T04:25:02.492Z,40.33
2023-04-10T04:27:04.600Z,40.80
2023-04-10T04:31:08.164Z,30.13
2023-04-10T04:33:10.118Z,29.25
2023-04-10T04:37:15.007Z,33.72
2023-04-10T04:39:17.102Z,31.00
2023-04-10T04:43:22.594Z,34.38
2023-04-10T04:45:24.951Z,33.03
2023-04-10T04:47:26.858Z,37.08
2023-04-10T04:49:28.755Z,34.72
2023-04-10T04:51:30.956Z,34.90
2023-04-10T04:55:34.689Z,35.25
2023-04-10T04:57:36.575Z,35.40
2023-04-10T04:59:38.413Z,32.05
2023-04-10T05:01:40.416Z,31.33
2023-04-10T05:03:42.593Z,31.10
2023-04-10T05:05:44.591Z,30.98
2023-04-10T05:07:46.456Z,32.22
2023-04-10T05:09:48.623Z,30.95
2023-04-10T05:13:53.195Z,35.15
2023-04-10T05:15:55.267Z,35.95
2023-04-10T05:19:59.036Z,35.05
2023-04-10T05:22:00.923Z,33.95
2023-04-10T05:24:03.123Z,31.92
2023-04-10T05:26:06.115Z,33.70
2023-04-10T05:28:08.081Z,35.50
2023-04-10T05:30:10.499Z,35.92
2023-04-10T05:32:12.494Z,33.80
2023-04-10T05:34:14.379Z,34.50
2023-04-10T05:36:18.252Z,32.47
2023-04-10T05:38:20.618Z,35.72
2023-04-10T05:40:22.480Z,31.88
2023-04-10T05:42:24.345Z,34.65
2023-04-10T05:44:26.253Z,34.97
2023-04-10T05:46:28.240Z,35.78
2023-04-10T05:50:31.983Z,35.85
2023-04-10T05:52:33.827Z,36.97
2023-04-10T05:54:35.889Z,30.73
2023-04-10T05:58:39.440Z,30.27
2023-04-10T06:00:41.362Z,26.90
2023-04-10T06:02:43.387Z,28.27
2023-04-10T06:06:47.439Z,28.05
2023-04-10T06:08:49.911Z,27.20
2023-04-10T06:10:51.844Z,27.80
2023-04-10T06:12:53.688Z,27.42
2023-04-10T06:14:55.939Z,29.30
2023-04-10T06:16:57.786Z,26.92
2023-04-10T06:18:59.636Z,29.98
2023-04-10T06:21:02.146Z,26.67
2023-04-10T06:23:04.046Z,29.05
2023-04-10T06:25:06.504Z,29.15
2023-04-10T06:27:08.981Z,28.45
2023-04-10T06:29:10.939Z,31.25
2023-04-10T06:31:13.003Z,31.25
2023-04-10T06:35:16.830Z,27.42
2023-04-10T06:37:18.941Z,28.45
2023-04-10T06:41:22.728Z,30.42
2023-04-10T06:43:24.667Z,31.20
2023-04-10T06:45:26.770Z,29.17
2023-04-10T06:49:30.691Z,30.00
2023-04-10T06:53:34.337Z,31.33
2023-04-10T06:55:37.627Z,31.52
2023-04-10T06:57:40.466Z,30.50
2023-04-10T06:59:42.962Z,29.48
2023-04-10T07:01:44.903Z,27.48
2023-04-10T07:05:48.631Z,25.23
2023-04-10T07:07:51.014Z,25.73
2023-04-10T07:09:52.837Z,26.38
2023-04-10T07:11:54.748Z,24.98
2023-04-10T07:13:58.618Z,25.00
2023-04-10T07:16:00.730Z,25.40
2023-04-10T07:20:05.486Z,25.15
2023-04-10T07:22:07.417Z,27.85
2023-04-10T07:24:09.275Z,25.38
2023-04-10T07:26:11.168Z,27.63
2023-04-10T07:28:13.023Z,26.33
2023-04-10T07:30:14.915Z,24.83
2023-04-10T07:32:17.059Z,25.00
2023-04-10T07:34:19.066Z,25.17
2023-04-10T07:36:20.908Z,22.70
2023-04-10T07:38:24.244Z,21.67
2023-04-10T07:40:26.674Z,23.42
2023-04-10T07:42:28.543Z,26.60
2023-04-10T07:44:30.508Z,23.83
2023-04-10T07:46:32.601Z,25.88
2023-04-10T07:50:36.411Z,21.58
2023-04-10T07:54:40.206Z,21.77
2023-04-10T07:56:42.162Z,21.92
2023-04-10T07:58:44.122Z,19.20
2023-04-10T08:00:46.463Z,19.67
2023-04-10T08:02:48.515Z,20.05
2023-04-10T08:06:52.690Z,19.73
2023-04-10T08:08:55.033Z,20.45
2023-04-10T08:10:56.990Z,19.27
2023-04-10T08:12:58.862Z,20.90
2023-04-10T08:15:00.778Z,19.50
2023-04-10T08:17:02.733Z,19.92
2023-04-10T08:21:06.880Z,18.92
2023-04-10T08:23:19.826Z,18.40
2023-04-10T08:25:22.646Z,17.85
2023-04-10T08:27:24.597Z,19.67
2023-04-10T08:29:26.447Z,20.02
2023-04-10T08:31:29.555Z,19.65
2023-04-10T08:33:31.914Z,20.20
2023-04-10T08:35:33.802Z,21.35
2023-04-10T08:37:35.743Z,19.88
2023-04-10T08:39:38.103Z,15.43
2023-04-10T08:41:41.421Z,19.13
2023-04-10T08:43:45.609Z,18.60
2023-04-10T08:45:48.043Z,14.45
2023-04-10T08:47:52.655Z,13.60
2023-04-10T08:49:56.539Z,14.07
2023-04-10T08:52:02.168Z,13.77
2023-04-10T08:54:08.218Z,12.77
2023-04-10T08:56:14.481Z,15.15
2023-04-10T08:58:16.830Z,14.15
2023-04-10T09:00:23.441Z,14.93
2023-04-10T09:02:28.733Z,13.73
2023-04-10T09:04:31.876Z,11.93
2023-04-10T09:06:34.492Z,12.70
2023-04-10T09:08:36.567Z,11.77
2023-04-10T09:12:48.372Z,12.15
2023-04-10T09:14:53.397Z,8.27
2023-04-10T09:17:18.734Z,9.90
2023-04-10T09:19:33.957Z,8.88
2023-04-10T09:21:35.951Z,9.23
2023-04-10T09:23:38.047Z,9.88
2023-04-10T09:27:42.459Z,8.23
2023-04-10T09:29:48.524Z,8.27
2023-04-10T09:31:51.317Z,8.35
2023-04-10T09:34:13.320Z,9.80
2023-04-10T09:36:15.254Z,8.40
2023-04-10T09:42:36.422Z,9.65
2023-04-10T09:44:41.132Z,9.75
2023-04-10T09:46:43.221Z,10.15
2023-04-10T09:50:57.681Z,12.68
2023-04-10T09:52:59.534Z,13.55
2023-04-10T09:55:04.352Z,14.02
2023-04-10T09:57:08.336Z,13.30
2023-04-10T09:59:11.182Z,14.48
2023-04-10T10:01:13.261Z,13.25
2023-04-10T10:05:18.628Z,12.63
2023-04-10T10:09:23.593Z,12.75
2023-04-10T10:13:50.232Z,11.50
2023-04-10T10:16:10.889Z,12.02
2023-04-10T10:18:50.398Z,12.50
2023-04-10T10:20:53.976Z,12.63
2023-04-10T10:22:57.603Z,10.43
2023-04-10T10:25:00.758Z,10.23
2023-04-10T10:27:03.898Z,10.20
2023-04-10T10:29:11.158Z,11.00
2023-04-10T10:31:13.313Z,8.98
2023-04-10T10:35:18.259Z,9.68
2023-04-10T10:37:23.857Z,10.38
2023-04-10T10:39:31.623Z,10.25
2023-04-10T10:41:43.461Z,10.43
2023-04-10T10:44:01.122Z,10.07
2023-04-10T10:46:07.373Z,11.07
2023-04-10T10:48:09.395Z,10.73
2023-04-10T10:50:11.427Z,10.18
2023-04-10T10:54:35.197Z,9.00
2023-04-10T10:56:37.237Z,8.85
2023-04-10T11:01:04.814Z,10.20
2023-04-10T11:03:10.915Z,9.52
2023-04-10T11:05:51.349Z,8.77
2023-04-10T11:07:59.230Z,10.35
2023-04-10T11:10:01.201Z,10.25
2023-04-10T11:12:03.149Z,9.02
2023-04-10T11:14:04.947Z,10.15
2023-04-10T11:16:10.781Z,10.32
2023-04-10T11:18:12.751Z,11.25
2023-04-10T11:20:15.697Z,10.52
2023-04-10T11:22:17.582Z,10.27
2023-04-10T11:24:19.485Z,11.23
2023-04-10T11:26:43.778Z,11.52
2023-04-10T11:28:45.728Z,12.25
2023-04-10T11:30:47.577Z,11.68
2023-04-10T11:32:50.936Z,10.85
2023-04-10T11:34:53.438Z,11.80
2023-04-10T11:36:55.334Z,13.05
2023-04-10T11:39:14.162Z,13.05
2023-04-10T11:41:16.243Z,13.75
2023-04-10T11:45:24.407Z,14.20
2023-04-10T11:47:26.913Z,17.67
2023-04-10T11:49:32.845Z,16.25
2023-04-10T11:51:34.774Z,16.48
2023-04-10T11:53:36.702Z,16.65
2023-04-10T11:55:39.357Z,17.38
2023-04-10T11:57:41.191Z,16.88
2023-04-10T11:59:50.498Z,16.73
2023-04-10T12:01:56.410Z,19.90
2023-04-10T12:03:58.476Z,18.33
2023-04-10T12:06:00.919Z,15.55
2023-04-10T12:08:03.025Z,14.93
2023-04-10T12:12:08.418Z,15.60
2023-04-10T12:14:10.335Z,15.13
2023-04-10T12:16:12.370Z,13.40
2023-04-10T12:20:16.852Z,13.82
2023-04-10T12:22:18.905Z,12.70
2023-04-10T12:26:49.738Z,14.05
2023-04-10T12:28:57.661Z,14.20
2023-04-10T12:31:00.297Z,13.63
2023-04-10T12:33:05.936Z,14.77
2023-04-10T12:35:08.251Z,12.57
2023-04-10T12:37:10.205Z,13.30
2023-04-10T12:39:23.795Z,12.30
2023-04-10T12:41:30.048Z,11.70
2023-04-10T12:43:35.309Z,14.07
2023-04-10T12:45:44.138Z,10.73
2023-04-10T12:47:47.597Z,13.88
2023-04-10T12:50:11.122Z,14.35
2023-04-10T12:52:23.005Z,13.30
2023-04-10T12:54:36.335Z,12.18
2023-04-10T12:56:42.773Z,12.90
2023-04-10T12:58:44.755Z,11.65
2023-04-10T13:00:47.581Z,12.70
2023-04-10T13:02:49.650Z,11.38
2023-04-10T13:04:52.031Z,10.52
2023-04-10T13:06:53.987Z,11.30
2023-04-10T13:08:56.399Z,9.82
2023-04-10T13:11:03.995Z,11.60
2023-04-10T13:13:07.217Z,10.23
2023-04-10T13:15:10.908Z,10.30
2023-04-10T13:17:12.909Z,10.38
2023-04-10T13:19:14.780Z,10.93
2023-04-10T13:21:19.890Z,11.98
2023-04-10T13:23:21.726Z,10.88
2023-04-10T13:25:24.065Z,11.32
2023-04-10T13:27:25.985Z,11.02
2023-04-10T13:29:28.945Z,9.38
2023-04-10T13:31:30.900Z,12.07
2023-04-10T13:33:32.751Z,11.38
2023-04-10T13:35:34.781Z,11.43
2023-04-10T13:37:36.756Z,12.48
2023-04-10T13:39:38.893Z,13.82
2023-04-10T13:41:40.872Z,11.00
2023-04-10T13:43:42.765Z,12.43
2023-04-10T13:45:44.625Z,13.70
2023-04-10T13:47:46.525Z,14.38
2023-04-10T13:49:48.436Z,14.75
2023-04-10T13:51:50.338Z,10.65
2023-04-10T13:53:52.171Z,11.82
2023-04-10T13:55:54.048Z,14.95
2023-04-10T13:57:56.951Z,11.73
2023-04-10T13:59:58.794Z,14.57
2023-04-10T14:02:00.723Z,11.05
2023-04-10T14:06:05.016Z,10.80
2023-04-10T14:10:09.241Z,10.10
2023-04-10T14:12:12.009Z,8.57
2023-04-10T14:14:13.876Z,9.10
2023-04-10T14:16:15.831Z,7.20
2023-04-10T14:18:18.474Z,5.78
2023-04-10T14:20:20.510Z,5.57
2023-04-10T14:24:24.492Z,6.07
2023-04-10T14:28:29.287Z,7.53
2023-04-10T14:30:32.697Z,6.65
2023-04-10T14:32:34.644Z,6.60
2023-04-10T14:36:38.489Z,6.68
2023-04-10T14:38:40.504Z,6.60
2023-04-10T14:42:45.931Z,5.85
2023-04-10T14:44:47.779Z,6.85
2023-04-10T14:46:49.762Z,6.05
2023-04-10T14:48:51.676Z,6.00
2023-04-10T14:50:53.578Z,5.63
2023-04-10T14:52:55.512Z,5.53
2023-04-10T14:54:57.359Z,6.05
2023-04-10T14:56:59.273Z,5.63
2023-04-10T14:59:01.190Z,5.28
2023-04-10T15:01:03.125Z,5.35
2023-04-10T15:03:06.332Z,5.70
2023-04-10T15:05:08.540Z,5.00
2023-04-10T15:07:10.419Z,4.72
2023-04-10T15:09:12.375Z,5.13
2023-04-10T15:11:14.234Z,4.90
2023-04-10T15:13:16.161Z,5.38
2023-04-10T15:15:18.829Z,5.05
2023-04-10T15:17:23.308Z,5.38
2023-04-10T15:19:25.538Z,5.05
2023-04-10T15:23:29.888Z,4.85
2023-04-10T15:25:35.179Z,5.72
2023-04-10T15:27:37.032Z,4.53
2023-04-10T15:29:42.420Z,5.47
2023-04-10T15:31:44.584Z,5.78
2023-04-10T15:35:49.923Z,5.85
2023-04-10T15:37:52.243Z,6.68
2023-04-10T15:39:54.086Z,6.07
2023-04-10T15:41:56.716Z,6.22
2023-04-10T15:43:58.983Z,5.90
2023-04-10T15:46:01.942Z,6.07
2023-04-10T15:48:04.689Z,6.10
2023-04-10T15:50:08.505Z,5.38
2023-04-10T15:52:12.170Z,6.38
2023-04-10T15:54:14.149Z,6.35
2023-04-10T15:56:16.257Z,5.57
2023-04-10T16:00:20.900Z,6.07
2023-04-10T16:02:23.069Z,5.50
2023-04-10T16:04:25.604Z,6.50
2023-04-10T16:06:28.002Z,5.95
2023-04-10T16:08:30.069Z,6.15
2023-04-10T16:12:34.457Z,5.80
2023-04-10T16:14:36.813Z,6.88
2023-04-10T16:16:38.752Z,7.22
2023-04-10T16:18:40.748Z,7.05
2023-04-10T16:20:42.736Z,6.65
2023-04-10T16:24:46.358Z,8.45
2023-04-10T16:26:48.315Z,7.40
2023-04-10T16:28:51.219Z,8.95
2023-04-10T16:30:53.133Z,8.30
2023-04-10T16:32:55.158Z,7.30
2023-04-10T16:36:58.798Z,11.37
2023-04-10T16:39:01.787Z,13.13
2023-04-10T16:41:04.873Z,9.52
2023-04-10T16:43:06.799Z,8.68
2023-04-10T16:45:09.909Z,8.00
2023-04-10T16:47:11.839Z,5.80
2023-04-10T16:49:13.786Z,7.05
2023-04-10T16:51:17.713Z,7.50
2023-04-10T16:53:19.648Z,6.65
2023-04-10T16:55:21.571Z,7.25
2023-04-10T16:57:23.471Z,6.07
2023-04-10T16:59:25.422Z,6.90
2023-04-10T17:01:27.464Z,6.90
2023-04-10T17:05:37.456Z,6.85
2023-04-10T17:07:39.389Z,7.22
2023-04-10T17:09:41.345Z,8.77
2023-04-10T17:11:43.315Z,7.43
2023-04-10T17:13:46.369Z,8.70
2023-04-10T17:15:48.472Z,10.70
2023-04-10T17:21:58.822Z,9.85
2023-04-10T17:24:00.688Z,11.32
2023-04-10T17:26:06.054Z,11.20
2023-04-10T17:28:09.216Z,10.15
2023-04-10T17:30:12.517Z,10.52
2023-04-10T17:32:14.497Z,8.93
2023-04-10T17:34:17.762Z,9.70
2023-04-10T18:39:10.117Z,6.22
2023-04-10T18:41:13.507Z,6.13
2023-04-10T18:43:18.885Z,5.85
2023-04-10T18:45:22.098Z,6.60
2023-04-10T18:47:25.444Z,5.55
2023-04-10T18:49:28.389Z,5.32
2023-04-10T18:51:33.897Z,5.28
2023-04-10T18:53:38.920Z,5.65
2023-04-10T18:55:41.846Z,8.63
2023-04-10T18:57:46.124Z,10.65
2023-04-10T18:59:50.180Z,10.38
2023-04-10T19:01:53.278Z,13.15
2023-04-10T19:03:58.278Z,13.98
2023-04-10T19:06:01.254Z,8.98
2023-04-10T19:08:05.735Z,7.82
2023-04-10T19:10:09.378Z,5.65
2023-04-10T19:12:12.450Z,6.32
2023-04-10T19:14:15.384Z,6.43
2023-04-10T19:16:21.142Z,5.47
2023-04-10T19:18:24.316Z,5.60
2023-04-10T19:20:49.812Z,5.50
2023-04-10T19:22:50.114Z,5.78
2023-04-10T19:24:53.213Z,5.13
2023-04-10T19:26:56.510Z,6.22
2023-04-10T19:29:00.301Z,6.43
2023-04-10T19:31:03.233Z,6.13
2023-04-10T19:33:06.093Z,6.07
2023-04-10T19:35:09.497Z,6.20
2023-04-10T19:37:12.607Z,6.75
2023-04-10T19:39:15.713Z,6.03
2023-04-10T19:41:19.008Z,5.88
2023-04-10T19:43:21.947Z,6.22
2023-04-10T19:45:27.823Z,6.32
2023-04-10T19:47:30.466Z,6.20
2023-04-10T19:49:36.180Z,6.38
2023-04-10T19:51:38.658Z,6.22
2023-04-10T19:53:42.528Z,6.05
2023-04-10T19:55:44.867Z,5.95
2023-04-10T19:57:47.531Z,7.45
2023-04-10T19:59:49.403Z,6.88
2023-04-10T20:01:51.525Z,7.40
2023-04-10T20:03:53.538Z,7.60
2023-04-10T20:07:57.983Z,7.82
2023-04-10T20:10:03.489Z,8.10
2023-04-10T20:12:05.588Z,7.85
2023-04-10T20:14:07.507Z,7.25
2023-04-10T20:16:09.491Z,7.90
2023-04-10T20:18:12.490Z,7.43
2023-04-10T20:20:14.450Z,8.73
2023-04-10T20:22:16.295Z,8.27
2023-04-10T20:24:18.159Z,7.20
2023-04-10T20:26:20.063Z,8.15
2023-04-10T20:28:21.902Z,7.55
2023-04-10T20:30:23.770Z,7.47
2023-04-10T20:32:25.740Z,7.97
2023-04-10T20:34:29.339Z,6.82
2023-04-10T20:36:32.423Z,7.88
2023-04-10T20:38:34.304Z,8.20
2023-04-10T20:40:36.138Z,8.18
2023-04-10T20:42:37.970Z,8.68
2023-04-10T20:44:39.848Z,8.63
2023-04-10T20:46:41.783Z,8.18
2023-04-10T20:48:43.699Z,6.93
2023-04-10T20:50:46.801Z,8.02
2023-04-10T20:52:48.683Z,9.13
2023-04-10T20:54:50.647Z,8.57
2023-04-10T20:56:52.541Z,6.13
2023-04-10T20:58:56.539Z,9.00
2023-04-10T21:00:58.539Z,7.82
2023-04-10T21:03:00.616Z,8.02
2023-04-10T21:07:04.498Z,8.00
2023-04-10T21:09:06.711Z,9.13
2023-04-10T21:11:08.586Z,7.80
2023-04-10T21:13:14.688Z,7.60
2023-04-10T21:15:16.683Z,9.38
2023-04-10T21:17:19.358Z,7.95
2023-04-10T21:19:21.309Z,9.57
2023-04-10T21:21:23.373Z,7.85
2023-04-10T21:25:27.086Z,7.97
2023-04-10T21:27:28.972Z,10.65
2023-04-10T21:29:30.983Z,7.95
2023-04-10T21:33:34.687Z,8.20
2023-04-10T21:35:36.512Z,8.43
2023-04-10T21:37:38.370Z,8.38
2023-04-10T21:39:43.572Z,10.90
2023-04-10T21:41:45.962Z,8.15
2023-04-10T21:43:47.847Z,8.15
2023-04-10T21:45:50.916Z,9.18
2023-04-10T21:47:53.436Z,8.20
2023-04-10T21:49:55.425Z,9.02
2023-04-10T21:51:59.196Z,8.27
2023-04-10T21:54:01.044Z,8.93
2023-04-10T21:56:02.869Z,10.07
2023-04-10T21:58:05.330Z,9.02
2023-04-10T22:00:09.637Z,8.45
2023-04-10T22:02:12.320Z,9.25
2023-04-10T22:04:14.312Z,9.02
2023-04-10T22:08:20.038Z,9.20
2023-04-10T22:10:21.998Z,8.93
2023-04-10T22:12:23.865Z,6.45
2023-04-10T22:14:26.106Z,7.65
2023-04-10T22:16:28.042Z,8.50
2023-04-10T22:18:29.938Z,7.88
2023-04-10T22:20:31.814Z,9.40
2023-04-10T22:22:33.942Z,9.23
2023-04-10T22:26:37.548Z,20.48
2023-04-10T22:28:39.437Z,18.77
2023-04-10T22:30:41.371Z,7.78
2023-04-10T22:32:43.247Z,10.38
2023-04-10T22:34:45.137Z,9.32
2023-04-10T22:36:47.037Z,8.07
2023-04-10T22:38:48.880Z,10.32
2023-04-10T22:40:50.762Z,9.57
2023-04-10T22:42:52.581Z,10.90
2023-04-10T22:44:54.546Z,9.07
2023-04-10T22:46:56.537Z,9.77
2023-04-10T22:51:00.182Z,9.50
2023-04-10T22:53:02.066Z,11.32
2023-04-10T22:55:08.092Z,7.95
2023-04-10T22:57:09.936Z,10.73
2023-04-10T22:59:11.831Z,8.30
2023-04-10T23:01:13.837Z,9.60
2023-04-10T23:03:15.706Z,9.68
2023-04-10T23:05:17.703Z,10.90
2023-04-10T23:07:19.539Z,10.30
2023-04-10T23:09:21.386Z,7.30
2023-04-10T23:11:23.324Z,10.68
2023-04-10T23:13:25.631Z,7.68
2023-04-10T23:15:27.534Z,11.30
2023-04-10T23:17:29.460Z,10.57
2023-04-10T23:19:31.339Z,7.80
2023-04-10T23:21:33.190Z,10.13
2023-04-10T23:23:35.220Z,9.10
2023-04-10T23:27:39.268Z,6.97
2023-04-10T23:29:41.141Z,8.52
2023-04-10T23:31:43.126Z,8.88
2023-04-10T23:35:47.609Z,10.18
2023-04-10T23:37:52.356Z,8.93
2023-04-10T23:39:54.200Z,8.35
2023-04-10T23:41:57.390Z,11.35
2023-04-10T23:43:59.180Z,9.80
2023-04-10T23:46:01.126Z,9.35
2023-04-10T23:48:03.049Z,8.77
2023-04-10T23:50:05.369Z,8.52
2023-04-10T23:52:07.583Z,8.65
2023-04-10T23:54:09.482Z,10.02
2023-04-10T23:56:11.363Z,10.07
2023-04-10T23:58:13.219Z,6.57
